sensor_id;sensor_type;location;lat;lon;timestamp;P1;durP1;ratioP1;P2;durP2;ratioP2
3141;SDS011;1581;51.568;6.998;2023-04-06T00:02:01;12.07;;;8.70;;
3141;SDS011;1581;51.568;6.998;2023-04-06T00:04:30;18.13;;;8.80;;
3141;SDS011;1581;51.568;6.998;2023-04-06T00:06:59;15.03;;;9.30;;
3141;SDS011;1581;51.568;6.998;2023-04-06T00:09:29;12.50;;;7.87;;
3141;SDS011;1581;51.568;6.998;2023-04-06T00:11:57;15.07;;;8.50;;
3141;SDS011;1581;51.568;6.998;2023-04-06T00:14:26;15.23;;;8.87;;
3141;SDS011;1581;51.568;6.998;2023-04-06T00:16:55;16.90;;;9.00;;
3141;SDS011;1581;51.568;6.998;2023-04-06T00:19:23;12.23;;;7.47;;
3141;SDS011;1581;51.568;6.998;2023-04-06T00:21:51;12.07;;;8.30;;
3141;SDS011;1581;51.568;6.998;2023-04-06T00:24:19;12.77;;;7.60;;
3141;SDS011;1581;51.568;6.998;2023-04-06T00:26:47;12.73;;;7.80;;
3141;SDS011;1581;51.568;6.998;2023-04-06T00:29:17;11.73;;;7.60;;
3141;SDS011;1581;51.568;6.998;2023-04-06T00:31:46;14.57;;;8.50;;
3141;SDS011;1581;51.568;6.998;2023-04-06T00:34:14;12.67;;;7.87;;
3141;SDS011;1581;51.568;6.998;2023-04-06T00:36:42;21.77;;;8.70;;
3141;SDS011;1581;51.568;6.998;2023-04-06T00:39:10;13.13;;;7.70;;
3141;SDS011;1581;51.568;6.998;2023-04-06T00:41:38;14.77;;;8.60;;
3141;SDS011;1581;51.568;6.998;2023-04-06T00:44:12;13.10;;;7.70;;
3141;SDS011;1581;51.568;6.998;2023-04-06T00:46:40;15.27;;;7.80;;
3141;SDS011;1581;51.568;6.998;2023-04-06T00:49:09;14.67;;;8.00;;
3141;SDS011;1581;51.568;6.998;2023-04-06T00:51:37;16.03;;;8.30;;
3141;SDS011;1581;51.568;6.998;2023-04-06T00:54:05;11.97;;;7.80;;
3141;SDS011;1581;51.568;6.998;2023-04-06T00:56:33;11.80;;;7.90;;
3141;SDS011;1581;51.568;6.998;2023-04-06T00:59:01;13.50;;;8.87;;
3141;SDS011;1581;51.568;6.998;2023-04-06T01:01:29;13.70;;;8.90;;
3141;SDS011;1581;51.568;6.998;2023-04-06T01:03:58;14.03;;;7.83;;
3141;SDS011;1581;51.568;6.998;2023-04-06T01:06:29;11.70;;;8.30;;
3141;SDS011;1581;51.568;6.998;2023-04-06T01:08:57;12.13;;;8.73;;
3141;SDS011;1581;51.568;6.998;2023-04-06T01:11:25;13.37;;;9.13;;
3141;SDS011;1581;51.568;6.998;2023-04-06T01:13:54;19.00;;;8.33;;
3141;SDS011;1581;51.568;6.998;2023-04-06T01:16:21;17.10;;;8.37;;
3141;SDS011;1581;51.568;6.998;2023-04-06T01:18:50;16.63;;;9.00;;
3141;SDS011;1581;51.568;6.998;2023-04-06T01:21:17;14.73;;;8.30;;
3141;SDS011;1581;51.568;6.998;2023-04-06T01:23:47;15.07;;;8.20;;
3141;SDS011;1581;51.568;6.998;2023-04-06T01:26:15;11.57;;;8.57;;
3141;SDS011;1581;51.568;6.998;2023-04-06T01:28:42;14.17;;;9.77;;
3141;SDS011;1581;51.568;6.998;2023-04-06T01:31:10;12.60;;;8.70;;
3141;SDS011;1581;51.568;6.998;2023-04-06T01:33:38;13.07;;;8.47;;
3141;SDS011;1581;51.568;6.998;2023-04-06T01:36:06;15.77;;;9.43;;
3141;SDS011;1581;51.568;6.998;2023-04-06T01:38:34;21.60;;;9.93;;
3141;SDS011;1581;51.568;6.998;2023-04-06T01:41:03;15.43;;;9.90;;
3141;SDS011;1581;51.568;6.998;2023-04-06T01:43:31;14.33;;;8.30;;
3141;SDS011;1581;51.568;6.998;2023-04-06T01:45:59;15.40;;;9.27;;
3141;SDS011;1581;51.568;6.998;2023-04-06T01:48:27;14.93;;;8.80;;
3141;SDS011;1581;51.568;6.998;2023-04-06T01:50:55;11.30;;;8.40;;
3141;SDS011;1581;51.568;6.998;2023-04-06T01:53:23;13.40;;;8.10;;
3141;SDS011;1581;51.568;6.998;2023-04-06T01:55:51;21.63;;;9.63;;
3141;SDS011;1581;51.568;6.998;2023-04-06T01:58:20;16.50;;;9.83;;
3141;SDS011;1581;51.568;6.998;2023-04-06T02:00:48;18.40;;;9.87;;
3141;SDS011;1581;51.568;6.998;2023-04-06T02:03:16;15.30;;;8.77;;
3141;SDS011;1581;51.568;6.998;2023-04-06T02:05:44;15.80;;;9.77;;
3141;SDS011;1581;51.568;6.998;2023-04-06T02:08:12;18.80;;;10.57;;
3141;SDS011;1581;51.568;6.998;2023-04-06T02:10:40;17.17;;;10.10;;
3141;SDS011;1581;51.568;6.998;2023-04-06T02:13:07;15.70;;;9.80;;
3141;SDS011;1581;51.568;6.998;2023-04-06T02:15:37;16.67;;;9.90;;
3141;SDS011;1581;51.568;6.998;2023-04-06T02:18:04;16.37;;;10.20;;
3141;SDS011;1581;51.568;6.998;2023-04-06T02:20:32;19.07;;;9.83;;
3141;SDS011;1581;51.568;6.998;2023-04-06T02:23:00;20.80;;;9.10;;
3141;SDS011;1581;51.568;6.998;2023-04-06T02:25:28;19.50;;;10.40;;
3141;SDS011;1581;51.568;6.998;2023-04-06T02:27:55;16.33;;;9.87;;
3141;SDS011;1581;51.568;6.998;2023-04-06T02:30:23;22.67;;;10.87;;
3141;SDS011;1581;51.568;6.998;2023-04-06T02:32:52;15.30;;;9.60;;
3141;SDS011;1581;51.568;6.998;2023-04-06T02:35:20;19.83;;;10.90;;
3141;SDS011;1581;51.568;6.998;2023-04-06T02:37:48;17.07;;;9.10;;
3141;SDS011;1581;51.568;6.998;2023-04-06T02:40:16;17.33;;;9.50;;
3141;SDS011;1581;51.568;6.998;2023-04-06T02:42:43;13.83;;;9.47;;
3141;SDS011;1581;51.568;6.998;2023-04-06T02:45:11;20.10;;;10.47;;
3141;SDS011;1581;51.568;6.998;2023-04-06T02:47:39;15.20;;;10.47;;
3141;SDS011;1581;51.568;6.998;2023-04-06T02:50:09;22.10;;;11.00;;
3141;SDS011;1581;51.568;6.998;2023-04-06T02:52:37;22.87;;;10.53;;
3141;SDS011;1581;51.568;6.998;2023-04-06T02:55:05;17.10;;;10.00;;
3141;SDS011;1581;51.568;6.998;2023-04-06T02:57:34;26.07;;;11.03;;
3141;SDS011;1581;51.568;6.998;2023-04-06T03:00:02;16.47;;;9.60;;
3141;SDS011;1581;51.568;6.998;2023-04-06T03:02:31;17.97;;;10.37;;
3141;SDS011;1581;51.568;6.998;2023-04-06T03:04:59;22.50;;;11.33;;
3141;SDS011;1581;51.568;6.998;2023-04-06T03:07:29;18.87;;;9.60;;
3141;SDS011;1581;51.568;6.998;2023-04-06T03:09:57;20.47;;;11.00;;
3141;SDS011;1581;51.568;6.998;2023-04-06T03:12:25;13.77;;;9.70;;
3141;SDS011;1581;51.568;6.998;2023-04-06T03:14:52;21.90;;;11.43;;
3141;SDS011;1581;51.568;6.998;2023-04-06T03:17:20;24.33;;;10.80;;
3141;SDS011;1581;51.568;6.998;2023-04-06T03:19:48;14.60;;;9.30;;
3141;SDS011;1581;51.568;6.998;2023-04-06T03:22:16;19.07;;;10.37;;
3141;SDS011;1581;51.568;6.998;2023-04-06T03:24:45;19.20;;;10.20;;
3141;SDS011;1581;51.568;6.998;2023-04-06T03:27:13;22.07;;;12.57;;
3141;SDS011;1581;51.568;6.998;2023-04-06T03:29:41;20.07;;;11.27;;
3141;SDS011;1581;51.568;6.998;2023-04-06T03:32:09;21.80;;;10.80;;
3141;SDS011;1581;51.568;6.998;2023-04-06T03:34:36;18.60;;;10.50;;
3141;SDS011;1581;51.568;6.998;2023-04-06T03:37:04;22.03;;;10.37;;
3141;SDS011;1581;51.568;6.998;2023-04-06T03:39:32;21.30;;;11.53;;
3141;SDS011;1581;51.568;6.998;2023-04-06T03:42:01;18.10;;;9.83;;
3141;SDS011;1581;51.568;6.998;2023-04-06T03:44:29;23.20;;;11.07;;
3141;SDS011;1581;51.568;6.998;2023-04-06T03:46:57;22.33;;;11.60;;
3141;SDS011;1581;51.568;6.998;2023-04-06T03:49:25;19.27;;;11.10;;
3141;SDS011;1581;51.568;6.998;2023-04-06T03:51:53;23.47;;;11.50;;
3141;SDS011;1581;51.568;6.998;2023-04-06T03:54:22;19.53;;;10.67;;
3141;SDS011;1581;51.568;6.998;2023-04-06T03:56:50;21.50;;;10.80;;
3141;SDS011;1581;51.568;6.998;2023-04-06T03:59:19;17.10;;;9.80;;
3141;SDS011;1581;51.568;6.998;2023-04-06T04:01:47;22.90;;;11.77;;
3141;SDS011;1581;51.568;6.998;2023-04-06T04:04:16;20.50;;;11.10;;
3141;SDS011;1581;51.568;6.998;2023-04-06T04:06:44;19.43;;;10.17;;
3141;SDS011;1581;51.568;6.998;2023-04-06T04:09:12;18.33;;;10.70;;
3141;SDS011;1581;51.568;6.998;2023-04-06T04:11:39;22.40;;;10.63;;
3141;SDS011;1581;51.568;6.998;2023-04-06T04:14:08;16.90;;;11.17;;
3141;SDS011;1581;51.568;6.998;2023-04-06T04:16:37;24.30;;;11.03;;
3141;SDS011;1581;51.568;6.998;2023-04-06T04:19:06;34.57;;;10.70;;
3141;SDS011;1581;51.568;6.998;2023-04-06T04:21:41;22.17;;;9.73;;
3141;SDS011;1581;51.568;6.998;2023-04-06T04:24:10;32.53;;;11.60;;
3141;SDS011;1581;51.568;6.998;2023-04-06T04:26:39;23.00;;;11.07;;
3141;SDS011;1581;51.568;6.998;2023-04-06T04:29:07;19.33;;;10.70;;
3141;SDS011;1581;51.568;6.998;2023-04-06T04:31:36;21.07;;;11.40;;
3141;SDS011;1581;51.568;6.998;2023-04-06T04:34:04;15.83;;;9.83;;
3141;SDS011;1581;51.568;6.998;2023-04-06T04:36:33;20.33;;;11.70;;
3141;SDS011;1581;51.568;6.998;2023-04-06T04:39:01;23.53;;;11.97;;
3141;SDS011;1581;51.568;6.998;2023-04-06T04:41:28;20.70;;;11.57;;
3141;SDS011;1581;51.568;6.998;2023-04-06T04:43:56;25.30;;;10.83;;
3141;SDS011;1581;51.568;6.998;2023-04-06T04:46:24;17.43;;;9.77;;
3141;SDS011;1581;51.568;6.998;2023-04-06T04:48:53;16.87;;;10.10;;
3141;SDS011;1581;51.568;6.998;2023-04-06T04:51:21;27.80;;;11.30;;
3141;SDS011;1581;51.568;6.998;2023-04-06T04:53:49;17.17;;;10.43;;
3141;SDS011;1581;51.568;6.998;2023-04-06T04:56:17;17.10;;;10.43;;
3141;SDS011;1581;51.568;6.998;2023-04-06T04:58:45;19.07;;;11.63;;
3141;SDS011;1581;51.568;6.998;2023-04-06T05:01:13;27.50;;;10.83;;
3141;SDS011;1581;51.568;6.998;2023-04-06T05:03:41;17.07;;;10.47;;
3141;SDS011;1581;51.568;6.998;2023-04-06T05:06:10;19.93;;;11.10;;
3141;SDS011;1581;51.568;6.998;2023-04-06T05:08:38;22.43;;;12.03;;
3141;SDS011;1581;51.568;6.998;2023-04-06T05:11:05;22.07;;;9.90;;
3141;SDS011;1581;51.568;6.998;2023-04-06T05:13:33;28.80;;;11.47;;
3141;SDS011;1581;51.568;6.998;2023-04-06T05:16:01;20.87;;;10.23;;
3141;SDS011;1581;51.568;6.998;2023-04-06T05:18:29;19.30;;;10.33;;
3141;SDS011;1581;51.568;6.998;2023-04-06T05:20:57;21.40;;;10.10;;
3141;SDS011;1581;51.568;6.998;2023-04-06T05:23:27;23.97;;;12.07;;
3141;SDS011;1581;51.568;6.998;2023-04-06T05:25:55;21.30;;;12.20;;
3141;SDS011;1581;51.568;6.998;2023-04-06T05:28:23;22.80;;;12.80;;
3141;SDS011;1581;51.568;6.998;2023-04-06T05:30:51;27.63;;;10.50;;
3141;SDS011;1581;51.568;6.998;2023-04-06T05:33:20;19.23;;;11.60;;
3141;SDS011;1581;51.568;6.998;2023-04-06T05:35:47;22.73;;;11.23;;
3141;SDS011;1581;51.568;6.998;2023-04-06T05:38:15;17.43;;;10.50;;
3141;SDS011;1581;51.568;6.998;2023-04-06T05:40:44;24.53;;;11.77;;
3141;SDS011;1581;51.568;6.998;2023-04-06T05:43:12;16.77;;;11.20;;
3141;SDS011;1581;51.568;6.998;2023-04-06T05:45:40;24.00;;;11.37;;
3141;SDS011;1581;51.568;6.998;2023-04-06T05:48:10;20.07;;;11.10;;
3141;SDS011;1581;51.568;6.998;2023-04-06T05:50:38;27.50;;;11.37;;
3141;SDS011;1581;51.568;6.998;2023-04-06T05:53:06;18.53;;;11.20;;
3141;SDS011;1581;51.568;6.998;2023-04-06T05:55:34;19.57;;;10.80;;
3141;SDS011;1581;51.568;6.998;2023-04-06T05:58:03;16.27;;;11.23;;
3141;SDS011;1581;51.568;6.998;2023-04-06T06:00:31;22.23;;;11.60;;
3141;SDS011;1581;51.568;6.998;2023-04-06T06:02:59;18.17;;;11.30;;
3141;SDS011;1581;51.568;6.998;2023-04-06T06:05:29;18.97;;;11.30;;
3141;SDS011;1581;51.568;6.998;2023-04-06T06:07:57;21.10;;;10.97;;
3141;SDS011;1581;51.568;6.998;2023-04-06T06:10:27;18.53;;;11.30;;
3141;SDS011;1581;51.568;6.998;2023-04-06T06:12:55;17.73;;;11.30;;
3141;SDS011;1581;51.568;6.998;2023-04-06T06:15:25;20.00;;;11.33;;
3141;SDS011;1581;51.568;6.998;2023-04-06T06:17:53;18.50;;;10.90;;
3141;SDS011;1581;51.568;6.998;2023-04-06T06:20:21;22.53;;;10.60;;
3141;SDS011;1581;51.568;6.998;2023-04-06T06:22:49;17.63;;;10.60;;
3141;SDS011;1581;51.568;6.998;2023-04-06T06:25:16;18.67;;;9.90;;
3141;SDS011;1581;51.568;6.998;2023-04-06T06:27:44;23.47;;;11.40;;
3141;SDS011;1581;51.568;6.998;2023-04-06T06:30:14;18.43;;;9.53;;
3141;SDS011;1581;51.568;6.998;2023-04-06T06:32:43;20.50;;;10.30;;
3141;SDS011;1581;51.568;6.998;2023-04-06T06:35:12;14.37;;;9.17;;
3141;SDS011;1581;51.568;6.998;2023-04-06T06:37:40;14.00;;;8.87;;
3141;SDS011;1581;51.568;6.998;2023-04-06T06:40:08;13.70;;;8.70;;
3141;SDS011;1581;51.568;6.998;2023-04-06T06:42:38;19.87;;;8.60;;
3141;SDS011;1581;51.568;6.998;2023-04-06T06:45:06;11.40;;;8.53;;
3141;SDS011;1581;51.568;6.998;2023-04-06T06:47:36;15.03;;;8.17;;
3141;SDS011;1581;51.568;6.998;2023-04-06T06:50:06;13.50;;;7.67;;
3141;SDS011;1581;51.568;6.998;2023-04-06T06:52:35;13.33;;;7.10;;
3141;SDS011;1581;51.568;6.998;2023-04-06T06:55:06;12.73;;;7.57;;
3141;SDS011;1581;51.568;6.998;2023-04-06T06:57:37;10.30;;;7.27;;
3141;SDS011;1581;51.568;6.998;2023-04-06T07:00:15;10.03;;;7.50;;
3141;SDS011;1581;51.568;6.998;2023-04-06T07:02:47;18.03;;;7.50;;
3141;SDS011;1581;51.568;6.998;2023-04-06T07:05:23;14.60;;;7.37;;
3141;SDS011;1581;51.568;6.998;2023-04-06T07:07:54;17.07;;;7.50;;
3141;SDS011;1581;51.568;6.998;2023-04-06T07:10:22;16.07;;;8.03;;
3141;SDS011;1581;51.568;6.998;2023-04-06T07:12:51;13.80;;;8.63;;
3141;SDS011;1581;51.568;6.998;2023-04-06T07:15:18;14.17;;;7.00;;
3141;SDS011;1581;51.568;6.998;2023-04-06T07:17:46;13.30;;;7.57;;
3141;SDS011;1581;51.568;6.998;2023-04-06T07:20:14;16.80;;;9.20;;
3141;SDS011;1581;51.568;6.998;2023-04-06T07:22:44;17.53;;;9.23;;
3141;SDS011;1581;51.568;6.998;2023-04-06T07:25:13;16.00;;;8.97;;
3141;SDS011;1581;51.568;6.998;2023-04-06T07:27:41;17.10;;;8.40;;
3141;SDS011;1581;51.568;6.998;2023-04-06T07:30:09;15.80;;;9.47;;
3141;SDS011;1581;51.568;6.998;2023-04-06T07:32:37;13.30;;;7.60;;
3141;SDS011;1581;51.568;6.998;2023-04-06T07:35:06;17.53;;;7.80;;
3141;SDS011;1581;51.568;6.998;2023-04-06T07:37:34;17.87;;;8.47;;
3141;SDS011;1581;51.568;6.998;2023-04-06T07:40:03;13.70;;;7.30;;
3141;SDS011;1581;51.568;6.998;2023-04-06T07:42:33;11.10;;;6.97;;
3141;SDS011;1581;51.568;6.998;2023-04-06T07:45:01;15.50;;;7.27;;
3141;SDS011;1581;51.568;6.998;2023-04-06T07:47:29;12.87;;;7.80;;
3141;SDS011;1581;51.568;6.998;2023-04-06T07:49:58;13.40;;;8.23;;
3141;SDS011;1581;51.568;6.998;2023-04-06T07:52:26;11.13;;;7.47;;
3141;SDS011;1581;51.568;6.998;2023-04-06T07:54:54;10.37;;;6.57;;
3141;SDS011;1581;51.568;6.998;2023-04-06T07:57:24;9.63;;;6.53;;
3141;SDS011;1581;51.568;6.998;2023-04-06T07:59:52;9.90;;;7.07;;
3141;SDS011;1581;51.568;6.998;2023-04-06T08:02:22;10.50;;;7.23;;
3141;SDS011;1581;51.568;6.998;2023-04-06T08:04:53;10.93;;;7.27;;
3141;SDS011;1581;51.568;6.998;2023-04-06T08:07:21;10.70;;;6.93;;
3141;SDS011;1581;51.568;6.998;2023-04-06T08:09:50;17.13;;;7.10;;
3141;SDS011;1581;51.568;6.998;2023-04-06T08:12:18;12.63;;;7.97;;
3141;SDS011;1581;51.568;6.998;2023-04-06T08:14:47;13.20;;;7.17;;
3141;SDS011;1581;51.568;6.998;2023-04-06T08:17:15;14.30;;;7.10;;
3141;SDS011;1581;51.568;6.998;2023-04-06T08:19:46;12.13;;;7.10;;
3141;SDS011;1581;51.568;6.998;2023-04-06T08:22:15;13.80;;;7.43;;
3141;SDS011;1581;51.568;6.998;2023-04-06T08:24:42;16.50;;;8.00;;
3141;SDS011;1581;51.568;6.998;2023-04-06T08:27:11;18.50;;;7.77;;
3141;SDS011;1581;51.568;6.998;2023-04-06T08:29:39;17.07;;;7.80;;
3141;SDS011;1581;51.568;6.998;2023-04-06T08:32:09;20.23;;;8.53;;
3141;SDS011;1581;51.568;6.998;2023-04-06T08:34:37;13.87;;;7.80;;
3141;SDS011;1581;51.568;6.998;2023-04-06T08:37:05;12.53;;;7.90;;
3141;SDS011;1581;51.568;6.998;2023-04-06T08:39:34;12.40;;;7.40;;
3141;SDS011;1581;51.568;6.998;2023-04-06T08:42:01;15.77;;;8.07;;
3141;SDS011;1581;51.568;6.998;2023-04-06T08:44:30;18.80;;;8.43;;
3141;SDS011;1581;51.568;6.998;2023-04-06T08:46:59;18.93;;;8.80;;
3141;SDS011;1581;51.568;6.998;2023-04-06T08:49:30;19.23;;;9.17;;
3141;SDS011;1581;51.568;6.998;2023-04-06T08:51:58;12.13;;;7.70;;
3141;SDS011;1581;51.568;6.998;2023-04-06T08:54:27;15.80;;;8.67;;
3141;SDS011;1581;51.568;6.998;2023-04-06T08:56:55;13.17;;;8.30;;
3141;SDS011;1581;51.568;6.998;2023-04-06T08:59:23;13.53;;;8.10;;
3141;SDS011;1581;51.568;6.998;2023-04-06T09:01:52;14.60;;;8.37;;
3141;SDS011;1581;51.568;6.998;2023-04-06T09:04:22;16.50;;;7.97;;
3141;SDS011;1581;51.568;6.998;2023-04-06T09:06:51;14.67;;;7.97;;
3141;SDS011;1581;51.568;6.998;2023-04-06T09:09:19;17.93;;;8.60;;
3141;SDS011;1581;51.568;6.998;2023-04-06T09:11:50;16.97;;;8.97;;
3141;SDS011;1581;51.568;6.998;2023-04-06T09:14:32;17.30;;;9.57;;
3141;SDS011;1581;51.568;6.998;2023-04-06T09:17:03;18.33;;;8.17;;
3141;SDS011;1581;51.568;6.998;2023-04-06T09:19:32;14.23;;;9.57;;
3141;SDS011;1581;51.568;6.998;2023-04-06T09:22:04;17.33;;;8.70;;
3141;SDS011;1581;51.568;6.998;2023-04-06T09:24:39;17.80;;;8.93;;
3141;SDS011;1581;51.568;6.998;2023-04-06T09:27:09;20.27;;;8.40;;
3141;SDS011;1581;51.568;6.998;2023-04-06T09:29:42;13.37;;;8.83;;
3141;SDS011;1581;51.568;6.998;2023-04-06T09:32:31;15.33;;;9.27;;
3141;SDS011;1581;51.568;6.998;2023-04-06T09:35:11;17.40;;;8.47;;
3141;SDS011;1581;51.568;6.998;2023-04-06T09:37:40;19.77;;;10.80;;
3141;SDS011;1581;51.568;6.998;2023-04-06T09:40:09;16.03;;;10.20;;
3141;SDS011;1581;51.568;6.998;2023-04-06T09:42:40;13.30;;;9.37;;
3141;SDS011;1581;51.568;6.998;2023-04-06T09:45:09;19.97;;;9.60;;
3141;SDS011;1581;51.568;6.998;2023-04-06T09:47:37;20.17;;;11.80;;
3141;SDS011;1581;51.568;6.998;2023-04-06T09:50:07;23.17;;;10.13;;
3141;SDS011;1581;51.568;6.998;2023-04-06T09:52:37;17.67;;;9.50;;
3141;SDS011;1581;51.568;6.998;2023-04-06T09:55:12;26.27;;;11.70;;
3141;SDS011;1581;51.568;6.998;2023-04-06T09:57:52;23.47;;;10.83;;
3141;SDS011;1581;51.568;6.998;2023-04-06T10:00:30;22.10;;;11.13;;
3141;SDS011;1581;51.568;6.998;2023-04-06T10:03:07;20.33;;;11.70;;
3141;SDS011;1581;51.568;6.998;2023-04-06T10:05:45;18.37;;;10.40;;
3141;SDS011;1581;51.568;6.998;2023-04-06T10:08:20;18.57;;;10.73;;
3141;SDS011;1581;51.568;6.998;2023-04-06T10:10:54;16.60;;;10.10;;
3141;SDS011;1581;51.568;6.998;2023-04-06T10:13:22;18.13;;;11.27;;
3141;SDS011;1581;51.568;6.998;2023-04-06T10:15:51;20.73;;;10.70;;
3141;SDS011;1581;51.568;6.998;2023-04-06T10:18:20;17.17;;;9.97;;
3141;SDS011;1581;51.568;6.998;2023-04-06T10:20:49;20.60;;;11.27;;
3141;SDS011;1581;51.568;6.998;2023-04-06T10:23:24;23.50;;;11.87;;
3141;SDS011;1581;51.568;6.998;2023-04-06T10:26:00;21.00;;;11.40;;
3141;SDS011;1581;51.568;6.998;2023-04-06T10:28:30;20.27;;;10.47;;
3141;SDS011;1581;51.568;6.998;2023-04-06T10:31:01;15.10;;;9.80;;
3141;SDS011;1581;51.568;6.998;2023-04-06T10:33:32;17.63;;;10.37;;
3141;SDS011;1581;51.568;6.998;2023-04-06T10:36:09;17.57;;;11.50;;
3141;SDS011;1581;51.568;6.998;2023-04-06T10:38:39;19.93;;;10.67;;
3141;SDS011;1581;51.568;6.998;2023-04-06T10:41:08;22.27;;;11.53;;
3141;SDS011;1581;51.568;6.998;2023-04-06T10:43:39;24.33;;;12.47;;
3141;SDS011;1581;51.568;6.998;2023-04-06T10:46:08;26.53;;;10.60;;
3141;SDS011;1581;51.568;6.998;2023-04-06T10:48:37;19.67;;;11.50;;
3141;SDS011;1581;51.568;6.998;2023-04-06T10:51:10;20.90;;;11.93;;
3141;SDS011;1581;51.568;6.998;2023-04-06T10:53:41;21.77;;;13.70;;
3141;SDS011;1581;51.568;6.998;2023-04-06T10:56:12;21.60;;;14.00;;
3141;SDS011;1581;51.568;6.998;2023-04-06T10:58:48;19.10;;;13.23;;
3141;SDS011;1581;51.568;6.998;2023-04-06T11:01:17;20.63;;;12.83;;
3141;SDS011;1581;51.568;6.998;2023-04-06T11:03:47;22.37;;;12.97;;
3141;SDS011;1581;51.568;6.998;2023-04-06T11:06:19;23.60;;;12.97;;
3141;SDS011;1581;51.568;6.998;2023-04-06T11:08:50;21.20;;;12.23;;
3141;SDS011;1581;51.568;6.998;2023-04-06T11:11:21;24.13;;;12.73;;
3141;SDS011;1581;51.568;6.998;2023-04-06T11:13:52;18.90;;;12.57;;
3141;SDS011;1581;51.568;6.998;2023-04-06T11:16:21;20.43;;;12.70;;
3141;SDS011;1581;51.568;6.998;2023-04-06T11:18:51;18.63;;;12.87;;
3141;SDS011;1581;51.568;6.998;2023-04-06T11:21:31;26.43;;;14.63;;
3141;SDS011;1581;51.568;6.998;2023-04-06T11:24:20;23.67;;;14.20;;
3141;SDS011;1581;51.568;6.998;2023-04-06T11:26:53;21.23;;;13.57;;
3141;SDS011;1581;51.568;6.998;2023-04-06T11:29:22;19.10;;;11.73;;
3141;SDS011;1581;51.568;6.998;2023-04-06T11:31:53;17.53;;;11.87;;
3141;SDS011;1581;51.568;6.998;2023-04-06T11:34:26;24.03;;;13.87;;
3141;SDS011;1581;51.568;6.998;2023-04-06T11:36:58;17.08;;;11.63;;
3141;SDS011;1581;51.568;6.998;2023-04-06T11:39:37;21.77;;;12.13;;
3141;SDS011;1581;51.568;6.998;2023-04-06T11:42:11;19.73;;;12.93;;
3141;SDS011;1581;51.568;6.998;2023-04-06T11:44:39;22.58;;;12.63;;
3141;SDS011;1581;51.568;6.998;2023-04-06T11:47:11;20.85;;;13.27;;
3141;SDS011;1581;51.568;6.998;2023-04-06T11:49:40;18.30;;;11.85;;
3141;SDS011;1581;51.568;6.998;2023-04-06T11:52:16;18.38;;;10.75;;
3141;SDS011;1581;51.568;6.998;2023-04-06T11:54:49;21.10;;;11.85;;
3141;SDS011;1581;51.568;6.998;2023-04-06T11:57:19;22.25;;;11.77;;
3141;SDS011;1581;51.568;6.998;2023-04-06T11:59:49;24.63;;;13.23;;
3141;SDS011;1581;51.568;6.998;2023-04-06T12:02:18;23.95;;;11.88;;
3141;SDS011;1581;51.568;6.998;2023-04-06T12:04:48;18.30;;;11.32;;
3141;SDS011;1581;51.568;6.998;2023-04-06T12:07:16;20.77;;;12.07;;
3141;SDS011;1581;51.568;6.998;2023-04-06T12:09:44;24.52;;;12.13;;
3141;SDS011;1581;51.568;6.998;2023-04-06T12:12:15;20.23;;;12.18;;
3141;SDS011;1581;51.568;6.998;2023-04-06T12:14:49;23.00;;;11.37;;
3141;SDS011;1581;51.568;6.998;2023-04-06T12:17:17;19.60;;;10.97;;
3141;SDS011;1581;51.568;6.998;2023-04-06T12:19:46;21.37;;;11.83;;
3141;SDS011;1581;51.568;6.998;2023-04-06T12:22:14;28.93;;;14.63;;
3141;SDS011;1581;51.568;6.998;2023-04-06T12:24:42;18.93;;;11.90;;
3141;SDS011;1581;51.568;6.998;2023-04-06T12:27:10;28.03;;;11.90;;
3141;SDS011;1581;51.568;6.998;2023-04-06T12:29:40;30.90;;;12.40;;
3141;SDS011;1581;51.568;6.998;2023-04-06T12:32:11;21.27;;;12.47;;
3141;SDS011;1581;51.568;6.998;2023-04-06T12:34:39;24.70;;;12.80;;
3141;SDS011;1581;51.568;6.998;2023-04-06T12:37:07;25.53;;;12.73;;
3141;SDS011;1581;51.568;6.998;2023-04-06T12:39:37;25.90;;;13.73;;
3141;SDS011;1581;51.568;6.998;2023-04-06T12:42:04;25.30;;;12.40;;
3141;SDS011;1581;51.568;6.998;2023-04-06T12:44:34;25.50;;;12.77;;
3141;SDS011;1581;51.568;6.998;2023-04-06T12:47:03;24.80;;;12.50;;
3141;SDS011;1581;51.568;6.998;2023-04-06T12:49:32;24.67;;;13.50;;
3141;SDS011;1581;51.568;6.998;2023-04-06T12:52:01;21.80;;;12.10;;
3141;SDS011;1581;51.568;6.998;2023-04-06T12:54:29;22.63;;;12.43;;
3141;SDS011;1581;51.568;6.998;2023-04-06T12:56:57;20.90;;;12.47;;
3141;SDS011;1581;51.568;6.998;2023-04-06T12:59:26;24.67;;;13.13;;
3141;SDS011;1581;51.568;6.998;2023-04-06T13:02:00;20.13;;;11.83;;
3141;SDS011;1581;51.568;6.998;2023-04-06T13:04:37;21.37;;;13.20;;
3141;SDS011;1581;51.568;6.998;2023-04-06T13:07:07;26.17;;;13.50;;
3141;SDS011;1581;51.568;6.998;2023-04-06T13:09:35;18.77;;;12.50;;
3141;SDS011;1581;51.568;6.998;2023-04-06T13:12:03;22.70;;;12.70;;
3141;SDS011;1581;51.568;6.998;2023-04-06T13:14:33;22.53;;;13.70;;
3141;SDS011;1581;51.568;6.998;2023-04-06T13:17:02;25.93;;;12.20;;
3141;SDS011;1581;51.568;6.998;2023-04-06T13:19:33;18.60;;;11.20;;
3141;SDS011;1581;51.568;6.998;2023-04-06T13:22:01;17.90;;;10.23;;
3141;SDS011;1581;51.568;6.998;2023-04-06T13:24:29;19.13;;;10.47;;
3141;SDS011;1581;51.568;6.998;2023-04-06T13:26:56;29.33;;;11.37;;
3141;SDS011;1581;51.568;6.998;2023-04-06T13:29:25;16.47;;;10.00;;
3141;SDS011;1581;51.568;6.998;2023-04-06T13:31:53;20.17;;;11.37;;
3141;SDS011;1581;51.568;6.998;2023-04-06T13:34:21;17.83;;;9.87;;
3141;SDS011;1581;51.568;6.998;2023-04-06T13:36:50;17.67;;;9.80;;
3141;SDS011;1581;51.568;6.998;2023-04-06T13:39:18;11.27;;;7.97;;
3141;SDS011;1581;51.568;6.998;2023-04-06T13:41:46;14.80;;;7.83;;
3141;SDS011;1581;51.568;6.998;2023-04-06T13:44:14;15.37;;;8.30;;
3141;SDS011;1581;51.568;6.998;2023-04-06T13:46:42;19.27;;;8.13;;
3141;SDS011;1581;51.568;6.998;2023-04-06T13:49:12;11.50;;;7.33;;
3141;SDS011;1581;51.568;6.998;2023-04-06T13:51:42;17.73;;;7.73;;
3141;SDS011;1581;51.568;6.998;2023-04-06T13:54:12;20.13;;;10.13;;
3141;SDS011;1581;51.568;6.998;2023-04-06T13:56:41;12.17;;;8.83;;
3141;SDS011;1581;51.568;6.998;2023-04-06T13:59:08;15.17;;;9.37;;
3141;SDS011;1581;51.568;6.998;2023-04-06T14:01:36;12.87;;;9.23;;
3141;SDS011;1581;51.568;6.998;2023-04-06T14:04:04;15.10;;;9.37;;
3141;SDS011;1581;51.568;6.998;2023-04-06T14:06:32;18.77;;;9.70;;
3141;SDS011;1581;51.568;6.998;2023-04-06T14:08:59;16.87;;;9.87;;
3141;SDS011;1581;51.568;6.998;2023-04-06T14:11:28;14.80;;;9.20;;
3141;SDS011;1581;51.568;6.998;2023-04-06T14:13:56;17.87;;;9.93;;
3141;SDS011;1581;51.568;6.998;2023-04-06T14:16:25;15.57;;;9.40;;
3141;SDS011;1581;51.568;6.998;2023-04-06T14:18:53;16.63;;;9.10;;
3141;SDS011;1581;51.568;6.998;2023-04-06T14:21:22;15.87;;;9.20;;
3141;SDS011;1581;51.568;6.998;2023-04-06T14:23:50;23.30;;;9.30;;
3141;SDS011;1581;51.568;6.998;2023-04-06T14:26:18;18.50;;;9.13;;
3141;SDS011;1581;51.568;6.998;2023-04-06T14:28:47;17.90;;;8.90;;
3141;SDS011;1581;51.568;6.998;2023-04-06T14:31:15;19.43;;;8.83;;
3141;SDS011;1581;51.568;6.998;2023-04-06T14:33:43;15.70;;;9.43;;
3141;SDS011;1581;51.568;6.998;2023-04-06T14:36:11;16.20;;;9.60;;
3141;SDS011;1581;51.568;6.998;2023-04-06T14:38:39;16.23;;;8.97;;
3141;SDS011;1581;51.568;6.998;2023-04-06T14:41:09;12.70;;;7.17;;
3141;SDS011;1581;51.568;6.998;2023-04-06T14:43:43;11.67;;;7.80;;
3141;SDS011;1581;51.568;6.998;2023-04-06T14:46:13;19.00;;;8.07;;
3141;SDS011;1581;51.568;6.998;2023-04-06T14:48:41;14.50;;;8.30;;
3141;SDS011;1581;51.568;6.998;2023-04-06T14:51:10;9.70;;;7.10;;
3141;SDS011;1581;51.568;6.998;2023-04-06T14:53:37;11.03;;;7.47;;
3141;SDS011;1581;51.568;6.998;2023-04-06T14:56:05;16.47;;;7.50;;
3141;SDS011;1581;51.568;6.998;2023-04-06T14:58:33;12.93;;;7.90;;
3141;SDS011;1581;51.568;6.998;2023-04-06T15:01:01;11.43;;;7.60;;
3141;SDS011;1581;51.568;6.998;2023-04-06T15:03:31;11.23;;;7.60;;
3141;SDS011;1581;51.568;6.998;2023-04-06T15:05:58;13.33;;;7.73;;
3141;SDS011;1581;51.568;6.998;2023-04-06T15:08:26;10.60;;;6.50;;